Attleboro Falls, MA

7:06 AM EST on January 28, 2015 (GMT -0500)
Bungay Lake | Change Station
CLOSE
Current Station
Personal Weather Station
Location: North Attleborough, MA
Elevation: 158 ft
Nearby Weather Stations

Elev 158 ft 41.99 °N, 71.28 °W | Updated 7 seconds ago

Overcast
Overcast
12.7 °F
Feels Like 5 °F
N
4.3
Wind Variable Wind from NW
Gusts 6.0 mph

Today
High -- | Low -- °F
--% Chance of Precip.
Yesterday
High -- | Low -- °F
Precip. -- in
7:02 AM 4:54 PM
Waxing Gibbous, 64% visible
Pressure 29.82 in
Visibility 10.0 miles
Clouds Scattered Clouds 4200 ft
Overcast 11000 ft
Windchill 5 °F
Dew Point 6 °F
Humidity 73%
Rainfall 0.00 in
Snow Depth Not available.
UV 0 out of 12
Pollen .10 out of 12
Air Quality Not available.
Flu Activity Not available.
METAR KSFZ 281155Z 30009G14KT 10SM SCT042 OVC110 M12/M18 A2982 RMK AO1 70002 11110 21120 52034

More Conditions Fewer Conditions

Pressure 29.82 in
Visibility 10.0 miles
Clouds Scattered Clouds 4200 ft
Overcast 11000 ft
Windchill 5 °F
Dew Point 6 °F
Humidity 73%
Rainfall 0.00 in
Snow Depth Not available.
UV 0 out of 12
Pollen .10 out of 12
Air Quality Not available.
Flu Activity Not available.
METAR KSFZ 281155Z 30009G14KT 10SM SCT042 OVC110 M12/M18 A2982 RMK AO1 70002 11110 21120 52034

More Conditions Fewer Conditions

10-Day Weather Forecast

Almanac

Astronomy

Jan. 28, 2015 Rise Set
Actual Time
Civil Twilight
Nautical Twilight
Astronomical Twilight
Moon
Length of Visible Light
Length of Day
Tomorrow will be .
, % of the Moon is Illuminated

Today's Extremes

State Highs State Lows

Community

WunderPhotos

Upload Photos

1,791,127 photos uploaded!

WunderBlogs® & News

Nearby

Air Quality

  Air Quality AQ Index Pollutant
Not available.

Snow Depth

Station Depth Elevation

Earthquake Activity

City Distance Mag. Time & Date
Minimum magnitude displayed is 2.5.

Coastal Water Temperatures

Place Temperature

Nearby Weather Stations